createdAt,value
2022-12-25T00:00:36.441Z,100927.63
2022-12-25T00:03:02.751Z,100920.50
2022-12-25T00:05:28.953Z,100920.72
2022-12-25T00:07:55.098Z,100918.56
2022-12-25T00:10:21.202Z,100922.63
2022-12-25T00:12:47.375Z,100926.38
2022-12-25T00:15:13.515Z,100930.47
2022-12-25T00:17:39.729Z,100925.38
2022-12-25T00:20:06.458Z,100922.56
2022-12-25T00:22:32.648Z,100922.25
2022-12-25T00:24:58.759Z,100925.97
2022-12-25T00:27:24.881Z,100933.16
2022-12-25T00:29:50.996Z,100928.97
2022-12-25T00:32:17.120Z,100934.19
2022-12-25T00:34:43.241Z,100931.94
2022-12-25T00:37:09.358Z,100935.56
2022-12-25T00:39:35.485Z,100941.66
2022-12-25T00:42:19.765Z,100939.03
2022-12-25T00:44:47.123Z,100938.28
2022-12-25T00:47:13.316Z,100942.63
2022-12-25T00:49:39.473Z,100942.34
2022-12-25T00:52:05.898Z,100946.56
2022-12-25T00:54:32.019Z,100936.59
2022-12-25T00:56:58.292Z,100941.69
2022-12-25T00:59:24.540Z,100947.59
2022-12-25T01:01:51.044Z,100942.72
2022-12-25T01:04:17.290Z,100945.78
2022-12-25T01:06:43.450Z,100962.38
2022-12-25T01:09:28.264Z,100960.78
2022-12-25T01:11:54.391Z,100967.31
2022-12-25T01:14:20.514Z,100972.84
2022-12-25T01:16:46.690Z,100973.38
2022-12-25T01:19:13.113Z,100971.47
2022-12-25T01:21:39.327Z,100980.16
2022-12-25T01:24:05.791Z,100982.53
2022-12-25T01:26:31.921Z,100989.31
2022-12-25T01:28:58.024Z,100993.34
2022-12-25T01:31:24.858Z,101008.00
2022-12-25T01:33:51.588Z,101004.84
2022-12-25T01:36:22.803Z,101001.13
2022-12-25T01:38:49.641Z,101003.28
2022-12-25T01:41:17.986Z,101014.38
2022-12-25T01:43:59.340Z,101015.91
2022-12-25T01:46:25.548Z,101020.34
2022-12-25T01:48:53.360Z,101024.91
2022-12-25T01:51:28.546Z,101026.91
2022-12-25T01:53:57.880Z,101028.69
2022-12-25T01:56:26.455Z,101037.50
2022-12-25T01:58:54.338Z,101035.25
2022-12-25T02:01:20.622Z,101030.69
2022-12-25T02:03:46.820Z,101028.16
2022-12-25T02:06:12.941Z,101031.25
2022-12-25T02:08:40.404Z,101015.44
2022-12-25T02:11:28.785Z,101025.13
2022-12-25T02:13:55.294Z,101036.88
2022-12-25T02:16:31.236Z,101042.19
2022-12-25T02:19:09.895Z,101050.66
2022-12-25T02:21:55.595Z,101051.22
2022-12-25T02:24:43.245Z,101050.56
2022-12-25T02:27:37.180Z,101058.50
2022-12-25T02:30:06.816Z,101045.34
2022-12-25T02:32:42.843Z,101040.47
2022-12-25T02:35:18.356Z,101041.72
2022-12-25T02:37:51.917Z,101044.28
2022-12-25T02:40:28.699Z,101047.00
2022-12-25T02:43:31.710Z,101054.47
2022-12-25T02:46:24.521Z,101062.56
2022-12-25T02:49:16.495Z,101060.66
2022-12-25T02:52:06.374Z,101069.53
2022-12-25T02:54:59.309Z,101058.19
2022-12-25T02:57:48.623Z,101062.97
2022-12-25T03:00:33.901Z,101069.25
2022-12-25T03:03:23.359Z,101065.03
2022-12-25T03:06:10.480Z,101059.53
2022-12-25T03:08:41.863Z,101067.56
2022-12-25T03:11:29.011Z,101057.06
2022-12-25T03:14:18.831Z,101058.97
2022-12-25T03:16:53.714Z,101066.00
2022-12-25T03:19:47.626Z,101066.00
2022-12-25T03:22:37.863Z,101066.19
2022-12-25T03:25:22.724Z,101064.19
2022-12-25T03:27:52.642Z,101069.47
2022-12-25T03:30:37.824Z,101066.84
2022-12-25T03:33:43.182Z,101077.63
2022-12-25T03:36:06.387Z,101069.25
2022-12-25T03:38:50.746Z,101073.81
2022-12-25T03:41:44.752Z,101070.81
2022-12-25T03:44:43.950Z,101080.34
2022-12-25T03:47:41.317Z,101078.53
2022-12-25T03:50:37.979Z,101094.75
2022-12-25T03:53:37.455Z,101089.66
2022-12-25T03:56:23.436Z,101080.97
2022-12-25T03:59:16.505Z,101088.16
2022-12-25T04:02:04.107Z,101085.41
2022-12-25T04:04:49.015Z,101090.91
2022-12-25T04:07:33.783Z,101090.63
2022-12-25T04:10:18.733Z,101096.00
2022-12-25T04:13:03.271Z,101096.94
2022-12-25T04:15:48.191Z,101097.91
2022-12-25T04:18:33.291Z,101105.97
2022-12-25T04:21:17.754Z,101111.44
2022-12-25T04:24:02.714Z,101111.66
2022-12-25T04:26:47.454Z,101124.06
2022-12-25T04:29:32.249Z,101122.53
2022-12-25T04:32:16.760Z,101136.75
2022-12-25T04:35:01.569Z,101133.25
2022-12-25T04:37:27.706Z,101134.28
2022-12-25T04:39:53.844Z,101136.28
2022-12-25T04:42:19.984Z,101129.38
2022-12-25T04:44:46.118Z,101129.22
2022-12-25T04:47:12.965Z,101126.13
2022-12-25T04:49:39.413Z,101134.06
2022-12-25T04:52:05.570Z,101134.81
2022-12-25T04:54:31.776Z,101136.53
2022-12-25T04:56:57.927Z,101133.09
2022-12-25T04:59:24.107Z,101112.97
2022-12-25T05:01:50.348Z,101122.25
2022-12-25T07:59:19.728Z,101204.31
2022-12-25T08:01:46.488Z,101194.16
2022-12-25T08:04:12.870Z,101200.44
2022-12-25T08:06:39.007Z,101199.94
2022-12-25T08:09:08.302Z,101198.53
2022-12-25T08:11:34.437Z,101196.41
2022-12-25T08:14:00.812Z,101200.34
2022-12-25T08:16:26.963Z,101201.72
2022-12-25T08:18:53.470Z,101207.84
2022-12-25T08:21:19.602Z,101195.81
2022-12-25T08:23:47.410Z,101207.38
2022-12-25T08:26:16.500Z,101214.25
2022-12-25T08:28:43.018Z,101207.50
2022-12-25T08:31:21.553Z,101215.00
2022-12-25T08:33:49.039Z,101218.78
2022-12-25T08:36:15.915Z,101211.22
2022-12-25T08:38:42.171Z,101216.44
2022-12-25T08:41:09.126Z,101215.38
2022-12-25T08:43:35.316Z,101213.94
2022-12-25T08:46:01.567Z,101214.44
2022-12-25T08:48:28.094Z,101218.59
2022-12-25T08:50:54.784Z,101211.44
2022-12-25T08:53:21.908Z,101214.06
2022-12-25T08:55:48.110Z,101215.59
2022-12-25T08:58:17.069Z,101209.63
2022-12-25T09:00:43.492Z,101204.50
2022-12-25T09:03:09.684Z,101203.56
2022-12-25T09:05:36.916Z,101181.34
2022-12-25T09:08:03.404Z,101187.41
2022-12-25T09:10:30.055Z,101183.16
2022-12-25T09:12:56.242Z,101184.59
2022-12-25T09:15:22.401Z,101187.97
2022-12-25T09:17:48.523Z,101174.91
2022-12-25T09:20:14.750Z,101162.06
2022-12-25T09:22:40.999Z,101152.31
2022-12-25T09:25:07.344Z,101148.72
2022-12-25T09:27:33.468Z,101134.44
2022-12-25T09:29:59.595Z,101132.16
2022-12-25T09:32:25.802Z,101119.03
2022-12-25T09:34:51.957Z,101120.44
2022-12-25T09:37:18.097Z,101112.78
2022-12-25T09:39:46.478Z,101121.88
2022-12-25T09:42:21.531Z,101119.03
2022-12-25T09:44:51.603Z,101118.78
2022-12-25T09:47:21.890Z,101112.09
2022-12-25T09:49:57.630Z,101118.59
2022-12-25T09:52:30.398Z,101117.94
2022-12-25T09:55:19.598Z,101123.66
2022-12-25T09:57:54.184Z,101120.56
2022-12-25T10:00:22.636Z,101128.00
2022-12-25T10:03:13.163Z,101125.91
2022-12-25T10:06:11.007Z,101131.50
2022-12-25T10:09:07.974Z,101128.72
2022-12-25T10:12:00.379Z,101121.28
2022-12-25T10:14:45.236Z,101125.00
2022-12-25T10:17:24.703Z,101124.84
2022-12-25T10:20:14.495Z,101130.94
2022-12-25T10:22:54.345Z,101115.38
2022-12-25T10:25:24.158Z,101130.03
2022-12-25T10:28:11.787Z,101133.88
2022-12-25T10:30:40.028Z,101135.44
2022-12-25T10:33:06.130Z,101144.38
2022-12-25T10:35:32.988Z,101135.13
2022-12-25T10:38:02.793Z,101138.84
2022-12-25T10:40:46.003Z,101122.06
2022-12-25T10:43:18.327Z,101111.97
2022-12-25T10:45:49.528Z,101112.38
2022-12-25T10:48:22.731Z,101107.84
2022-12-25T10:50:49.573Z,101090.75
2022-12-25T10:53:25.617Z,101080.88
2022-12-25T10:56:03.409Z,101074.75
2022-12-25T10:58:30.451Z,101074.72
2022-12-25T11:01:06.793Z,101077.81
2022-12-25T11:03:35.310Z,101082.97
2022-12-25T11:06:03.003Z,101086.25
2022-12-25T11:08:33.126Z,101076.38
2022-12-25T11:11:06.600Z,101066.00
2022-12-25T11:13:36.203Z,101061.25
2022-12-25T11:16:05.418Z,101059.56
2022-12-25T11:18:47.810Z,101080.03
2022-12-25T11:21:26.451Z,101081.41
2022-12-25T11:24:03.664Z,101080.97
2022-12-25T11:26:35.423Z,101083.78
2022-12-25T11:29:01.921Z,101092.03
2022-12-25T11:31:37.288Z,101099.50
2022-12-25T11:34:06.283Z,101101.38
2022-12-25T11:36:47.132Z,101097.47
2022-12-25T11:39:42.598Z,101085.94
2022-12-25T11:42:22.661Z,101068.78
2022-12-25T11:45:10.341Z,101066.69
2022-12-25T11:47:48.837Z,101081.63
2022-12-25T11:50:54.581Z,101078.84
2022-12-25T11:53:30.566Z,101066.97
2022-12-25T11:56:02.594Z,101050.81
2022-12-25T11:58:33.573Z,101034.25
2022-12-25T12:01:04.983Z,101030.47
2022-12-25T12:03:40.493Z,101018.41
2022-12-25T12:06:29.996Z,101014.50
2022-12-25T12:09:12.139Z,101007.53
2022-12-25T12:11:46.680Z,100978.16
2022-12-25T12:14:45.468Z,100958.50
2022-12-25T12:17:13.518Z,100960.97
2022-12-25T12:19:39.635Z,100956.97
2022-12-25T12:22:06.053Z,100965.06
2022-12-25T12:24:42.067Z,100976.44
2022-12-25T12:27:27.906Z,100981.72
2022-12-25T12:29:55.723Z,100984.78
2022-12-25T12:32:34.018Z,100986.00
2022-12-25T12:35:05.708Z,100995.28
2022-12-25T12:37:35.733Z,100984.53
2022-12-25T12:40:02.823Z,100984.47
2022-12-25T12:42:34.802Z,100977.34
2022-12-25T12:45:11.051Z,100975.88
2022-12-25T12:47:38.922Z,100966.66
2022-12-25T12:50:05.993Z,100975.47
2022-12-25T12:52:35.869Z,100968.94
2022-12-25T12:55:08.309Z,100961.97
2022-12-25T12:57:39.686Z,100964.56
2022-12-25T13:00:11.058Z,100965.22
2022-12-25T13:02:50.125Z,100968.00
2022-12-25T13:05:33.982Z,100963.66
2022-12-25T13:08:31.450Z,100963.47
2022-12-25T13:11:21.203Z,100958.53
2022-12-25T13:13:49.706Z,100955.34
2022-12-25T13:16:26.721Z,100956.63
2022-12-25T13:18:54.178Z,100958.53
2022-12-25T13:21:29.113Z,100975.22
2022-12-25T13:24:01.344Z,100978.84
2022-12-25T13:26:28.795Z,100974.88
2022-12-25T13:28:56.222Z,100966.25
2022-12-25T13:31:25.363Z,100953.38
2022-12-25T13:33:55.382Z,100952.75
2022-12-25T13:36:21.606Z,100952.66
2022-12-25T13:38:50.930Z,100965.91
2022-12-25T13:41:41.845Z,100953.53
2022-12-25T13:44:20.553Z,100947.09
2022-12-25T13:46:47.191Z,100956.72
2022-12-25T13:49:18.728Z,100949.94
2022-12-25T13:51:46.318Z,100951.13
2022-12-25T13:54:14.750Z,100946.38
2022-12-25T13:56:55.312Z,100939.25
2022-12-25T13:59:24.658Z,100922.50
2022-12-25T14:01:52.297Z,100912.50
2022-12-25T14:04:24.501Z,100912.31
2022-12-25T14:06:52.408Z,100922.22
2022-12-25T14:09:19.578Z,100916.34
2022-12-25T14:11:51.503Z,100914.19
2022-12-25T14:14:25.747Z,100920.38
2022-12-25T14:16:56.471Z,100909.97
2022-12-25T14:19:29.080Z,100897.22
2022-12-25T14:22:01.724Z,100890.19
2022-12-25T14:24:30.128Z,100896.03
2022-12-25T14:27:02.012Z,100899.53
2022-12-25T14:29:43.177Z,100889.97
2022-12-25T14:32:16.141Z,100899.88
2022-12-25T14:34:43.982Z,100904.66
2022-12-25T14:37:16.215Z,100902.09
2022-12-25T14:39:47.158Z,100900.19
2022-12-25T14:42:22.390Z,100902.25
2022-12-25T14:44:58.693Z,100913.16
2022-12-25T14:47:25.475Z,100911.59
2022-12-25T14:49:53.753Z,100921.03
2022-12-25T14:52:25.442Z,100913.88
2022-12-25T14:54:59.481Z,100914.06
2022-12-25T14:57:29.512Z,100910.69
2022-12-25T15:00:07.684Z,100902.53
2022-12-25T15:02:40.607Z,100899.78
2022-12-25T15:05:25.036Z,100889.91
2022-12-25T15:08:17.916Z,100885.56
2022-12-25T15:10:59.605Z,100868.50
2022-12-25T15:13:27.912Z,100857.25
2022-12-25T15:16:06.432Z,100844.44
2022-12-25T15:18:38.235Z,100845.81
2022-12-25T15:21:04.489Z,100843.16
2022-12-25T15:23:30.635Z,100845.09
2022-12-25T15:25:56.769Z,100841.25
2022-12-25T15:28:23.002Z,100838.19
2022-12-25T15:30:49.969Z,100827.69
2022-12-25T15:33:18.537Z,100839.38
2022-12-25T15:35:45.700Z,100851.78
2022-12-25T15:38:13.253Z,100854.22
2022-12-25T15:40:40.679Z,100860.25
2022-12-25T15:43:14.480Z,100851.66
2022-12-25T15:45:53.976Z,100854.09
2022-12-25T15:48:20.141Z,100854.09
2022-12-25T15:50:46.869Z,100860.34
2022-12-25T15:53:13.066Z,100855.06
2022-12-25T15:55:39.382Z,100845.31
2022-12-25T15:58:05.504Z,100840.97
2022-12-25T16:00:31.706Z,100829.19
2022-12-25T16:02:58.075Z,100826.75
2022-12-25T16:05:24.375Z,100830.78
2022-12-25T16:07:50.565Z,100832.69
2022-12-25T16:10:19.462Z,100832.56
2022-12-25T16:12:46.073Z,100833.84
2022-12-25T16:15:13.753Z,100825.78
2022-12-25T16:17:39.883Z,100832.03
2022-12-25T16:20:06.909Z,100828.19
2022-12-25T16:22:39.708Z,100820.88
2022-12-25T16:25:12.515Z,100802.84
2022-12-25T16:27:38.643Z,100795.53
2022-12-25T16:30:05.309Z,100784.72
2022-12-25T16:32:31.479Z,100779.19
2022-12-25T16:34:57.591Z,100783.53
2022-12-25T16:37:24.019Z,100786.81
2022-12-25T16:39:50.126Z,100778.72
2022-12-25T16:42:16.285Z,100786.69
2022-12-25T16:44:42.417Z,100789.34
2022-12-25T16:47:08.560Z,100786.56
2022-12-25T16:49:35.245Z,100776.69
2022-12-25T16:52:01.365Z,100783.38
2022-12-25T16:54:27.501Z,100780.59
2022-12-25T16:56:53.629Z,100777.59
2022-12-25T16:59:19.749Z,100770.16
2022-12-25T17:01:45.989Z,100757.63
2022-12-25T17:04:12.263Z,100740.25
2022-12-25T17:06:38.557Z,100736.16
2022-12-25T17:09:05.110Z,100744.94
2022-12-25T17:11:32.013Z,100737.72
2022-12-25T17:14:02.152Z,100734.44
2022-12-25T17:16:31.088Z,100722.88
2022-12-25T17:19:01.496Z,100703.47
2022-12-25T17:21:28.786Z,100698.91
2022-12-25T17:24:01.666Z,100689.75
2022-12-25T17:26:30.035Z,100686.97
2022-12-25T17:28:56.468Z,100682.63
2022-12-25T17:31:23.277Z,100685.28
2022-12-25T17:33:49.520Z,100689.28
2022-12-25T17:36:18.383Z,100677.38
2022-12-25T17:38:44.920Z,100691.09
2022-12-25T17:41:13.436Z,100689.78
2022-12-25T17:43:42.145Z,100685.34
2022-12-25T17:46:11.903Z,100672.81
2022-12-25T17:48:38.384Z,100671.94
2022-12-25T17:51:06.488Z,100673.91
2022-12-25T17:53:35.174Z,100671.88
2022-12-25T17:56:01.287Z,100661.88
2022-12-25T17:58:27.720Z,100664.16
2022-12-25T18:00:54.689Z,100674.28
2022-12-25T18:03:21.641Z,100663.22
2022-12-25T18:05:48.516Z,100668.16
2022-12-25T18:08:15.181Z,100667.78
2022-12-25T18:10:43.450Z,100662.84
2022-12-25T18:13:11.534Z,100658.63
2022-12-25T18:15:41.228Z,100642.19
2022-12-25T18:18:08.348Z,100632.88
2022-12-25T18:20:39.959Z,100624.69
2022-12-25T18:23:06.468Z,100614.50
2022-12-25T18:25:33.822Z,100608.84
2022-12-25T18:28:02.721Z,100609.56
2022-12-25T18:30:29.092Z,100597.81
2022-12-25T18:32:55.446Z,100596.88
2022-12-25T18:35:21.626Z,100600.97
2022-12-25T18:37:48.249Z,100588.13
2022-12-25T18:40:14.427Z,100587.88
2022-12-25T18:42:40.571Z,100592.09
2022-12-25T18:45:14.929Z,100588.22
2022-12-25T18:47:41.252Z,100593.28
2022-12-25T18:50:08.753Z,100595.44
2022-12-25T18:52:49.554Z,100589.88
2022-12-25T18:55:17.423Z,100568.22
2022-12-25T18:57:43.588Z,100569.81
2022-12-25T19:00:10.138Z,100569.53
2022-12-25T19:02:36.381Z,100568.31
2022-12-25T19:05:02.530Z,100566.13
2022-12-25T19:07:28.709Z,100562.72
2022-12-25T19:09:54.836Z,100566.09
2022-12-25T19:12:20.987Z,100555.44
2022-12-25T19:14:48.379Z,100530.78
2022-12-25T19:17:15.182Z,100513.38
2022-12-25T19:19:41.306Z,100505.69
2022-12-25T19:22:07.669Z,100511.59
2022-12-25T19:24:34.372Z,100512.88
2022-12-25T19:27:00.500Z,100513.72
2022-12-25T19:29:26.622Z,100513.06
2022-12-25T19:31:53.328Z,100500.47
2022-12-25T19:34:20.358Z,100482.81
2022-12-25T19:36:46.483Z,100482.56
2022-12-25T19:39:13.211Z,100495.72
2022-12-25T19:41:39.761Z,100483.97
2022-12-25T19:44:06.406Z,100482.31
2022-12-25T19:46:35.936Z,100480.34
2022-12-25T19:49:04.567Z,100474.03
2022-12-25T19:51:33.421Z,100471.25
2022-12-25T19:54:00.407Z,100450.66
2022-12-25T19:56:27.859Z,100456.28
2022-12-25T19:58:54.741Z,100449.00
2022-12-25T20:01:22.968Z,100443.88
2022-12-25T20:03:49.665Z,100434.78
2022-12-25T20:06:20.084Z,100431.16
2022-12-25T20:08:47.333Z,100432.69
2022-12-25T20:11:13.581Z,100426.22
2022-12-25T20:13:39.710Z,100415.84
2022-12-25T20:16:08.978Z,100430.84
2022-12-25T20:18:35.157Z,100435.06
2022-12-25T20:21:07.039Z,100430.63
2022-12-25T20:23:33.642Z,100419.41
2022-12-25T20:26:01.265Z,100415.19
2022-12-25T20:28:32.162Z,100420.50
2022-12-25T20:30:58.283Z,100407.72
2022-12-25T20:33:25.121Z,100408.63
2022-12-25T20:35:51.426Z,100400.47
2022-12-25T20:38:18.029Z,100397.69
2022-12-25T20:41:24.459Z,100388.03
2022-12-25T20:43:31.157Z,100378.78
2022-12-25T20:45:57.353Z,100372.75
2022-12-25T20:48:23.831Z,100375.41
2022-12-25T20:50:50.378Z,100376.13
2022-12-25T20:53:17.436Z,100372.31
2022-12-25T20:55:48.500Z,100372.06
2022-12-25T20:58:16.699Z,100360.84
2022-12-25T21:00:44.494Z,100359.16
2022-12-25T21:03:11.523Z,100353.56
2022-12-25T21:05:49.815Z,100364.22
2022-12-25T21:08:18.080Z,100366.88
2022-12-25T21:10:46.270Z,100363.06
2022-12-25T21:13:12.421Z,100350.75
2022-12-25T21:15:44.011Z,100354.50
2022-12-25T21:18:10.816Z,100358.88
2022-12-25T21:20:37.016Z,100344.56
2022-12-25T21:23:03.146Z,100344.84
2022-12-25T21:25:29.268Z,100351.84
2022-12-25T21:27:55.412Z,100346.81
2022-12-25T21:30:21.576Z,100331.09
2022-12-25T21:33:06.184Z,100322.38
2022-12-25T21:35:36.159Z,100325.19
2022-12-25T21:38:02.311Z,100322.94
2022-12-25T21:40:28.427Z,100322.13
2022-12-25T21:42:54.564Z,100315.09
2022-12-25T21:45:20.685Z,100319.56
2022-12-25T21:48:01.643Z,100321.41
2022-12-25T21:50:47.767Z,100321.41
2022-12-25T21:53:19.987Z,100313.25
2022-12-25T21:55:56.966Z,100308.63
2022-12-25T21:58:23.421Z,100310.59
2022-12-25T22:00:49.629Z,100314.94
2022-12-25T22:03:15.818Z,100300.63
2022-12-25T22:06:00.730Z,100296.84
2022-12-25T22:08:31.542Z,100288.13
2022-12-25T22:10:58.621Z,100295.69
2022-12-25T22:13:43.385Z,100302.03
2022-12-25T22:16:28.380Z,100295.69
2022-12-25T22:19:13.431Z,100304.38
2022-12-25T22:21:39.607Z,100312.09
2022-12-25T22:24:08.186Z,100298.06
2022-12-25T22:26:35.120Z,100298.78
2022-12-25T22:29:01.681Z,100297.94
2022-12-25T22:31:28.084Z,100300.44
2022-12-25T22:33:55.371Z,100311.06
2022-12-25T22:36:21.718Z,100315.44
2022-12-25T22:38:47.851Z,100305.59
2022-12-25T22:41:13.964Z,100307.44
2022-12-25T22:44:15.225Z,100289.47
2022-12-25T22:46:27.242Z,100296.50
2022-12-25T22:48:53.436Z,100298.84
2022-12-25T22:51:19.556Z,100289.31
2022-12-25T22:53:45.691Z,100284.13
2022-12-25T22:56:11.809Z,100268.81
2022-12-25T22:58:37.944Z,100270.34
2022-12-25T23:01:07.996Z,100260.53
2022-12-25T23:03:34.230Z,100260.53
2022-12-25T23:06:00.447Z,100260.53
2022-12-25T23:08:26.577Z,100265.28
2022-12-25T23:10:52.721Z,100261.59
2022-12-25T23:13:37.706Z,100267.63
2022-12-25T23:16:04.733Z,100248.97
2022-12-25T23:18:49.351Z,100253.19
2022-12-25T23:21:36.120Z,100234.59
2022-12-25T23:24:21.626Z,100236.97
2022-12-25T23:26:47.818Z,100239.34
2022-12-25T23:29:34.216Z,100236.38
2022-12-25T23:32:00.362Z,100239.34
2022-12-25T23:34:26.588Z,100249.03
2022-12-25T23:36:52.705Z,100242.69
2022-12-25T23:39:18.871Z,100239.88
2022-12-25T23:41:46.664Z,100227.50
2022-12-25T23:44:13.862Z,100239.41
2022-12-25T23:46:40.819Z,100242.09
2022-12-25T23:49:07.771Z,100236.59
2022-12-25T23:51:38.664Z,100233.09
2022-12-25T23:54:08.227Z,100234.75
2022-12-25T23:56:34.392Z,100228.31
2022-12-25T23:59:01.944Z,100232.50
